Time;durP1;ratioP1;P1;durP2;ratioP2;P2;SDS_P1;SDS_P2;PMS_P1;PMS_P2;Temp;Humidity;BMP_temperature;BMP_pressure;BME280_temperature;BME280_humidity;BME280_pressure;Samples;Min_cycle;Max_cycle;Signal;HPM_P1;HPM_P2
2024/01/06 00:02:00;;;;;;;0.50;0.50;;;;;;;-2.77;100.00;101144.00;5013931;28;20420;-75
2024/01/06 00:04:26;;;;;;;0.50;0.50;;;;;;;-2.64;100.00;101143.34;4997627;28;20038;-74
2024/01/06 00:06:54;;;;;;;0.50;0.50;;;;;;;-2.61;100.00;101145.81;4980888;28;20046;-75
2024/01/06 00:09:20;;;;;;;0.50;0.50;;;;;;;-2.62;100.00;101152.88;4981258;28;20096;-73
2024/01/06 00:11:48;;;;;;;0.50;0.50;;;;;;;-2.59;100.00;101157.09;4997256;28;20041;-73
2024/01/06 00:14:14;;;;;;;0.50;0.50;;;;;;;-2.59;100.00;101157.09;4981434;28;20034;-73
2024/01/06 00:16:40;;;;;;;0.50;0.50;;;;;;;-2.58;100.00;101153.53;4981235;28;20429;-74
2024/01/06 00:19:10;;;;;;;0.50;0.50;;;;;;;-2.58;100.00;101151.75;4981085;28;20042;-75
2024/01/06 00:21:36;;;;;;;0.50;0.50;;;;;;;-2.53;100.00;101146.25;4981829;28;20096;-75
2024/01/06 00:24:06;;;;;;;0.50;0.50;;;;;;;-2.48;100.00;101150.34;4980995;28;20042;-74
2024/01/06 00:26:34;;;;;;;0.52;0.52;;;;;;;-2.45;100.00;101146.69;4982168;28;20076;-72
2024/01/06 00:29:05;;;;;;;0.50;0.50;;;;;;;-2.44;100.00;101154.50;4981605;28;20389;-75
2024/01/06 00:31:31;;;;;;;0.50;0.50;;;;;;;-2.47;100.00;101153.81;4980530;28;20440;-74
2024/01/06 00:34:03;;;;;;;0.50;0.50;;;;;;;-2.50;100.00;101161.88;4981516;28;20121;-75
2024/01/06 00:36:30;;;;;;;0.55;0.55;;;;;;;-2.46;100.00;101158.13;4981157;28;20034;-75
2024/01/06 00:38:55;;;;;;;0.50;0.50;;;;;;;-2.48;100.00;101154.75;4996867;28;20038;-73
2024/01/06 00:41:27;;;;;;;0.55;0.55;;;;;;;-2.53;100.00;101160.25;4996263;28;20503;-73
2024/01/06 00:43:56;;;;;;;0.50;0.50;;;;;;;-2.59;100.00;101173.75;5013254;28;20049;-75
2024/01/06 00:46:21;;;;;;;0.50;0.50;;;;;;;-2.67;100.00;101165.41;4964720;28;20373;-73
2024/01/06 00:48:48;;;;;;;0.50;0.50;;;;;;;-2.69;100.00;101167.28;4980883;28;20034;-73
2024/01/06 00:51:16;;;;;;;0.50;0.50;;;;;;;-2.63;100.00;101166.09;5013082;28;20112;-75
2024/01/06 00:53:42;;;;;;;0.50;0.50;;;;;;;-2.63;100.00;101168.72;4980289;28;20091;-74
2024/01/06 00:56:10;;;;;;;0.50;0.50;;;;;;;-2.74;100.00;101170.16;4980239;28;20056;-74
2024/01/06 00:58:35;;;;;;;0.50;0.50;;;;;;;-2.81;100.00;101167.91;5013769;28;20437;-74
2024/01/06 01:01:02;;;;;;;0.50;0.50;;;;;;;-2.85;100.00;101161.13;4995957;28;20104;-74
2024/01/06 01:03:30;;;;;;;0.50;0.50;;;;;;;-2.90;100.00;101161.34;5012758;28;20099;-74
2024/01/06 01:05:57;;;;;;;0.50;0.50;;;;;;;-2.92;100.00;101157.94;4996949;28;20022;-75
2024/01/06 01:08:25;;;;;;;0.50;0.50;;;;;;;-2.84;100.00;101163.66;4996113;28;20037;-74
2024/01/06 01:10:54;;;;;;;0.50;0.50;;;;;;;-2.73;100.00;101176.25;4980584;28;20125;-74
2024/01/06 01:13:21;;;;;;;0.50;0.50;;;;;;;-2.80;100.00;101167.84;4997064;28;20038;-74
2024/01/06 01:15:47;;;;;;;0.50;0.50;;;;;;;-2.87;100.00;101171.72;5012584;28;20126;-75
2024/01/06 01:18:14;;;;;;;0.50;0.50;;;;;;;-2.91;100.00;101165.78;4996656;28;20030;-74
2024/01/06 01:20:43;;;;;;;0.50;0.50;;;;;;;-2.89;100.00;101181.47;4980170;28;20081;-74
2024/01/06 01:23:09;;;;;;;0.50;0.50;;;;;;;-2.95;100.00;101176.53;4996417;28;20080;-74
2024/01/06 01:25:38;;;;;;;0.50;0.50;;;;;;;-3.01;100.00;101182.97;4963950;28;20054;-74
2024/01/06 01:28:06;;;;;;;0.50;0.50;;;;;;;-2.98;100.00;101189.84;5012594;28;20512;-74
2024/01/06 01:30:33;;;;;;;0.50;0.50;;;;;;;-2.91;100.00;101188.56;5012317;28;20034;-74
2024/01/06 01:32:58;;;;;;;0.50;0.50;;;;;;;-2.78;100.00;101187.03;4996565;28;20088;-74
2024/01/06 01:35:27;;;;;;;0.50;0.50;;;;;;;-2.78;100.00;101181.78;4979629;28;20033;-74
2024/01/06 01:37:59;;;;;;;0.50;0.50;;;;;;;-2.87;100.00;101183.09;4996908;28;20076;-74
2024/01/06 01:40:24;;;;;;;0.50;0.50;;;;;;;-2.95;100.00;101182.63;4995751;28;20045;-74
2024/01/06 01:42:50;;;;;;;0.50;0.50;;;;;;;-2.89;100.00;101181.47;5012715;28;20037;-74
2024/01/06 01:45:18;;;;;;;0.50;0.50;;;;;;;-2.95;100.00;101192.31;4980150;28;20499;-75
2024/01/06 01:47:49;;;;;;;0.50;0.50;;;;;;;-3.05;100.00;101196.34;4980001;28;20041;-74
2024/01/06 01:50:14;;;;;;;0.50;0.50;;;;;;;-3.19;100.00;101192.63;4980317;28;20030;-76
2024/01/06 01:52:41;;;;;;;0.43;0.43;;;;;;;-3.19;100.00;101194.41;4979703;28;20045;-74
2024/01/06 01:55:07;;;;;;;0.50;0.50;;;;;;;-3.21;100.00;101199.72;4993712;28;20045;-74
2024/01/06 01:57:34;;;;;;;0.50;0.50;;;;;;;-3.27;100.00;101201.84;4980556;28;20411;-74
2024/01/06 02:00:03;;;;;;;0.50;0.50;;;;;;;-3.33;100.00;101209.09;4980715;28;20030;-74
2024/01/06 02:02:32;;;;;;;0.50;0.50;;;;;;;-3.39;100.00;101204.13;4998004;28;20105;-75
2024/01/06 02:05:02;;;;;;;0.50;0.50;;;;;;;-3.36;100.00;101213.63;5015696;28;20568;-74
2024/01/06 02:07:33;;;;;;;0.50;0.50;;;;;;;-3.32;100.00;101217.81;4999657;28;20084;-74
2024/01/06 02:10:00;;;;;;;0.50;0.50;;;;;;;-3.28;100.00;101224.66;4999866;28;20100;-74
2024/01/06 02:12:25;;;;;;;0.60;0.60;;;;;;;-3.27;100.00;101217.63;4999404;28;20444;-74
2024/01/06 02:14:51;;;;;;;0.50;0.50;;;;;;;-3.29;100.00;101220.31;5015460;28;20030;-74
2024/01/06 02:17:23;;;;;;;0.50;0.50;;;;;;;-3.27;100.00;101222.88;4983061;28;20121;-74
2024/01/06 02:20:07;;;;;;;0.50;0.50;;;;;;;-3.16;100.00;101233.69;5001713;28;20033;-74
2024/01/06 02:22:33;;;;;;;0.50;0.50;;;;;;;-3.12;100.00;101228.22;4983201;28;20053;-74
2024/01/06 02:24:59;;;;;;;0.50;0.50;;;;;;;-2.99;100.00;101235.47;4967211;28;20484;-73
2024/01/06 02:27:27;;;;;;;0.50;0.50;;;;;;;-2.97;100.00;101236.25;4983896;28;20045;-73
2024/01/06 02:29:53;;;;;;;0.52;0.52;;;;;;;-3.07;100.00;101238.50;4982746;28;20060;-74
2024/01/06 02:32:18;;;;;;;0.60;0.60;;;;;;;-3.09;100.00;101240.38;4999985;28;20030;-74
2024/01/06 02:34:47;;;;;;;0.50;0.50;;;;;;;-3.10;100.00;101257.06;4982887;28;20385;-73
2024/01/06 02:37:12;;;;;;;0.50;0.50;;;;;;;-3.11;100.00;101252.75;4983215;28;20128;-73
2024/01/06 02:39:38;;;;;;;0.50;0.50;;;;;;;-3.12;100.00;101249.25;4982905;28;20449;-74
2024/01/06 02:42:04;;;;;;;0.50;0.50;;;;;;;-3.04;100.00;101251.53;4998926;28;20037;-74
2024/01/06 02:44:31;;;;;;;0.50;0.50;;;;;;;-3.03;100.00;101250.56;4983178;28;20034;-74
2024/01/06 02:46:59;;;;;;;0.50;0.50;;;;;;;-2.97;100.00;101254.69;4982351;28;20124;-73
2024/01/06 02:49:29;;;;;;;0.50;0.50;;;;;;;-3.00;100.00;101262.72;5015204;28;20041;-73
2024/01/06 02:51:55;;;;;;;0.50;0.50;;;;;;;-3.15;100.00;101264.31;4982651;28;20041;-74
2024/01/06 02:54:20;;;;;;;0.50;0.50;;;;;;;-3.20;100.00;101264.56;4983035;28;20124;-74
2024/01/06 02:56:51;;;;;;;0.50;0.50;;;;;;;-3.21;100.00;101260.22;4982689;28;20096;-74
2024/01/06 02:59:17;;;;;;;0.50;0.50;;;;;;;-3.17;100.00;101269.69;4982653;28;20041;-74
2024/01/06 03:01:42;;;;;;;0.50;0.50;;;;;;;-3.10;100.00;101263.19;4982597;28;20033;-73
2024/01/06 03:04:11;;;;;;;0.50;0.50;;;;;;;-3.02;100.00;101265.41;4982579;28;20037;-74
2024/01/06 03:06:36;;;;;;;0.50;0.50;;;;;;;-2.94;100.00;101278.19;5014629;28;20432;-74
2024/01/06 03:09:02;;;;;;;0.50;0.50;;;;;;;-2.77;100.00;101280.84;4982334;28;20065;-74
2024/01/06 03:11:29;;;;;;;0.50;0.50;;;;;;;-2.83;100.00;101280.28;4981228;28;20072;-73
2024/01/06 03:13:54;;;;;;;0.50;0.50;;;;;;;-2.95;100.00;101284.41;4998235;28;20073;-74
2024/01/06 03:16:21;;;;;;;0.50;0.50;;;;;;;-2.98;100.00;101279.28;4982196;28;20083;-74
2024/01/06 03:18:53;;;;;;;0.50;0.50;;;;;;;-3.04;100.00;101279.56;4998660;28;20033;-74
2024/01/06 03:21:26;;;;;;;0.50;0.50;;;;;;;-2.98;100.00;101274.88;4982228;28;20496;-73
2024/01/06 03:23:52;;;;;;;0.50;0.50;;;;;;;-2.86;100.00;101276.03;4998728;28;20045;-73
2024/01/06 03:26:18;;;;;;;0.50;0.50;;;;;;;-2.68;100.00;101279.53;4998018;28;20072;-74
2024/01/06 03:28:49;;;;;;;0.50;0.50;;;;;;;-2.59;100.00;101276.44;4997967;28;20049;-74
2024/01/06 03:31:15;;;;;;;0.50;0.50;;;;;;;-2.55;100.00;101280.59;4982083;28;20084;-74
2024/01/06 03:33:41;;;;;;;0.50;0.50;;;;;;;-2.43;100.00;101284.41;4997912;28;20393;-74
2024/01/06 03:36:07;;;;;;;0.50;0.50;;;;;;;-2.42;100.00;101295.78;4997414;28;20029;-74
2024/01/06 03:38:33;;;;;;;0.50;0.50;;;;;;;-2.47;100.00;101296.84;4997655;28;20083;-74
2024/01/06 03:40:59;;;;;;;0.50;0.50;;;;;;;-2.60;100.00;101300.19;4981965;28;20038;-74
2024/01/06 03:43:25;;;;;;;0.50;0.50;;;;;;;-2.76;100.00;101295.69;4998054;28;20034;-74
2024/01/06 03:45:51;;;;;;;0.57;0.57;;;;;;;-2.83;100.00;101301.34;4981752;28;20030;-73
2024/01/06 03:48:17;;;;;;;0.50;0.50;;;;;;;-2.85;100.00;101300.59;5013816;28;20491;-73
2024/01/06 03:50:43;;;;;;;0.50;0.50;;;;;;;-2.76;100.00;101313.28;4997949;28;20072;-73
2024/01/06 03:53:08;;;;;;;0.50;0.50;;;;;;;-2.51;100.00;101308.50;4981665;28;20041;-74
2024/01/06 03:55:34;;;;;;;0.50;0.50;;;;;;;-2.54;100.00;101310.41;4997278;28;20041;-74
2024/01/06 03:58:00;;;;;;;0.50;0.50;;;;;;;-2.73;100.00;101313.13;4981419;28;20116;-74
2024/01/06 04:00:26;;;;;;;0.50;0.50;;;;;;;-2.75;100.00;101307.06;4981627;28;20080;-74
2024/01/06 04:02:52;;;;;;;0.50;0.50;;;;;;;-2.74;100.00;101308.81;4981071;28;20147;-74
2024/01/06 04:05:20;;;;;;;0.50;0.50;;;;;;;-2.87;100.00;101309.41;4981250;28;20480;-74
2024/01/06 04:07:47;;;;;;;0.50;0.50;;;;;;;-3.02;100.00;101315.41;4976710;28;20057;-74
2024/01/06 04:10:15;;;;;;;0.50;0.50;;;;;;;-2.95;100.00;101316.81;4997376;28;20041;-74
2024/01/06 04:12:44;;;;;;;0.50;0.50;;;;;;;-2.80;100.00;101317.00;4997210;28;20037;-74
2024/01/06 04:15:12;;;;;;;0.50;0.50;;;;;;;-2.83;100.00;101318.00;5013695;28;20037;-74
2024/01/06 04:17:38;;;;;;;0.50;0.50;;;;;;;-2.76;100.00;101322.03;5013267;28;20034;-74
2024/01/06 04:20:04;;;;;;;0.50;0.50;;;;;;;-2.83;100.00;101323.28;4981198;28;20041;-73
2024/01/06 04:22:35;;;;;;;0.50;0.50;;;;;;;-2.94;100.00;101318.53;4980552;28;20069;-73
2024/01/06 04:25:01;;;;;;;0.50;0.50;;;;;;;-2.87;100.00;101330.44;5013592;28;20129;-74
2024/01/06 04:27:26;;;;;;;0.50;0.50;;;;;;;-2.59;100.00;101330.84;4980844;28;20116;-74
2024/01/06 04:29:57;;;;;;;0.50;0.50;;;;;;;-2.35;100.00;101329.63;4980967;28;20045;-74
2024/01/06 04:32:23;;;;;;;0.50;0.50;;;;;;;-2.22;100.00;101333.31;4980766;28;20091;-73
2024/01/06 04:34:50;;;;;;;0.50;0.50;;;;;;;-2.05;100.00;101336.84;4981133;28;20524;-74
2024/01/06 04:37:16;;;;;;;0.50;0.50;;;;;;;-1.96;100.00;101338.16;4996965;28;20053;-74
2024/01/06 04:39:45;;;;;;;0.50;0.50;;;;;;;-2.08;100.00;101342.28;4980847;28;20392;-74
2024/01/06 04:42:11;;;;;;;0.50;0.50;;;;;;;-2.22;100.00;101341.22;4980599;28;20060;-74
2024/01/06 04:44:38;;;;;;;0.50;0.50;;;;;;;-2.29;100.00;101346.88;4980864;28;20528;-74
2024/01/06 04:47:09;;;;;;;0.60;0.60;;;;;;;-2.34;100.00;101348.91;4981195;28;20381;-73
2024/01/06 04:49:34;;;;;;;0.50;0.50;;;;;;;-2.40;100.00;101349.22;5012826;28;20041;-73
2024/01/06 04:52:00;;;;;;;0.50;0.50;;;;;;;-2.44;100.00;101353.78;4980625;28;20504;-74
2024/01/06 04:54:26;;;;;;;0.50;0.50;;;;;;;-2.58;100.00;101359.75;4980593;28;20025;-73
2024/01/06 04:56:52;;;;;;;0.50;0.50;;;;;;;-2.62;100.00;101355.59;4980665;28;20484;-74
2024/01/06 04:59:17;;;;;;;0.50;0.50;;;;;;;-2.69;100.00;101362.06;4980524;28;20128;-73
2024/01/06 05:01:43;;;;;;;0.50;0.50;;;;;;;-2.83;100.00;101361.88;4980385;28;20030;-74
2024/01/06 05:04:09;;;;;;;0.50;0.50;;;;;;;-2.93;100.00;101362.34;4980378;28;20042;-74
2024/01/06 05:06:37;;;;;;;0.50;0.50;;;;;;;-3.04;100.00;101358.50;5012718;28;20034;-74
2024/01/06 05:09:05;;;;;;;0.50;0.50;;;;;;;-2.96;100.00;101364.28;4980475;28;20500;-73
2024/01/06 05:11:32;;;;;;;0.50;0.50;;;;;;;-2.97;100.00;101360.78;5012717;28;20038;-73
2024/01/06 05:14:03;;;;;;;0.50;0.50;;;;;;;-2.95;100.00;101368.59;4982039;28;20042;-73
2024/01/06 05:16:29;;;;;;;0.50;0.50;;;;;;;-3.01;100.00;101361.84;4980313;28;20083;-74
2024/01/06 05:18:55;;;;;;;0.50;0.50;;;;;;;-3.14;100.00;101366.84;4980408;28;20049;-73
2024/01/06 05:21:23;;;;;;;0.60;0.60;;;;;;;-3.10;100.00;101367.53;4979527;28;20029;-73
2024/01/06 05:23:48;;;;;;;0.50;0.50;;;;;;;-3.10;100.00;101373.69;4980588;28;20033;-73
2024/01/06 05:26:15;;;;;;;0.50;0.50;;;;;;;-2.98;100.00;101366.13;4980324;28;20056;-74
2024/01/06 05:28:40;;;;;;;0.50;0.50;;;;;;;-2.99;100.00;101367.03;5012203;28;20089;-73
2024/01/06 05:31:08;;;;;;;0.50;0.50;;;;;;;-3.10;100.00;101368.44;4996176;28;20106;-74
2024/01/06 05:33:34;;;;;;;0.50;0.50;;;;;;;-3.12;100.00;101367.63;4980099;28;20465;-74
2024/01/06 05:36:02;;;;;;;0.57;0.57;;;;;;;-2.98;100.00;101377.50;4982497;28;20062;-73
2024/01/06 05:38:28;;;;;;;0.50;0.50;;;;;;;-2.92;100.00;101378.97;5000545;28;20033;-73
2024/01/06 05:40:57;;;;;;;0.50;0.50;;;;;;;-2.92;100.00;101379.81;5000432;28;20044;-73
2024/01/06 05:47:25;;;;;;;;;;;;;;;;;;;;;
2024/01/06 05:50:00;;;;;;;0.50;0.50;;;;;;;-2.95;100.00;101392.28;5016021;28;20033;-73
2024/01/06 05:52:31;;;;;;;0.50;0.50;;;;;;;-3.04;100.00;101398.84;4983768;28;20038;-74
2024/01/06 05:54:58;;;;;;;0.50;0.50;;;;;;;-3.22;100.00;101408.44;5015896;28;20113;-73
2024/01/06 05:57:24;;;;;;;0.50;0.50;;;;;;;-3.06;100.00;101405.09;5000317;28;20389;-73
2024/01/06 05:59:50;;;;;;;0.50;0.50;;;;;;;-3.10;100.00;101409.63;4983553;28;20034;-74
2024/01/06 06:02:16;;;;;;;0.50;0.50;;;;;;;-3.15;100.00;101416.88;4999510;28;20029;-74
2024/01/06 06:04:41;;;;;;;0.50;0.50;;;;;;;-3.22;100.00;101410.22;4983651;28;20048;-73
2024/01/06 06:07:10;;;;;;;0.50;0.50;;;;;;;-3.20;100.00;101416.25;4984264;28;20384;-73
2024/01/06 06:09:41;;;;;;;0.50;0.50;;;;;;;-3.13;100.00;101417.69;4983563;28;20034;-74
2024/01/06 06:12:09;;;;;;;0.50;0.50;;;;;;;-3.10;100.00;101425.41;4983559;28;20047;-73
2024/01/06 06:14:35;;;;;;;0.50;0.50;;;;;;;-3.13;100.00;101423.78;5015443;28;20029;-73
2024/01/06 06:17:00;;;;;;;0.50;0.50;;;;;;;-3.14;100.00;101429.97;4983411;28;20032;-73
2024/01/06 06:19:28;;;;;;;0.50;0.50;;;;;;;-3.18;100.00;101432.81;4983329;28;20524;-74
2024/01/06 06:21:54;;;;;;;0.50;0.50;;;;;;;-3.18;100.00;101430.19;4983551;28;20479;-74
2024/01/06 06:24:24;;;;;;;0.50;0.50;;;;;;;-3.17;100.00;101435.38;4983134;28;20113;-73
2024/01/06 06:26:52;;;;;;;0.50;0.50;;;;;;;-3.23;100.00;101435.66;4983575;28;20041;-74
2024/01/06 06:29:20;;;;;;;0.50;0.50;;;;;;;-3.37;100.00;101438.91;4999085;28;20429;-73
2024/01/06 06:31:46;;;;;;;0.50;0.50;;;;;;;-3.52;100.00;101442.22;4999022;28;20137;-74
2024/01/06 06:34:12;;;;;;;0.50;0.50;;;;;;;-3.51;100.00;101438.69;4982922;28;20038;-73
2024/01/06 06:36:38;;;;;;;0.50;0.50;;;;;;;-3.41;100.00;101439.16;4966611;28;20076;-74
2024/01/06 06:39:07;;;;;;;0.50;0.50;;;;;;;-3.41;100.00;101441.78;4982382;28;20428;-73
2024/01/06 06:41:35;;;;;;;0.50;0.50;;;;;;;-3.54;100.00;101450.22;4999030;28;20049;-74
2024/01/06 06:44:01;;;;;;;0.50;0.50;;;;;;;-3.61;100.00;101450.53;4982657;28;20560;-74
2024/01/06 06:46:27;;;;;;;0.50;0.50;;;;;;;-3.51;100.00;101458.88;4982742;28;20121;-73
2024/01/06 06:48:56;;;;;;;0.50;0.50;;;;;;;-3.51;100.00;101458.88;4982838;28;20057;-73
2024/01/06 06:51:24;;;;;;;0.50;0.50;;;;;;;-3.53;100.00;101462.41;4982675;28;20037;-73
2024/01/06 06:53:52;;;;;;;0.50;0.50;;;;;;;-3.57;100.00;101462.66;4982675;28;20033;-73
2024/01/06 06:56:20;;;;;;;0.50;0.50;;;;;;;-3.57;100.00;101463.50;4982216;28;20030;-73
2024/01/06 06:58:48;;;;;;;0.50;0.50;;;;;;;-3.59;100.00;101465.34;4982597;28;20038;-73
2024/01/06 07:01:17;;;;;;;0.50;0.50;;;;;;;-3.67;100.00;101483.22;4982386;28;20038;-74
2024/01/06 07:03:47;;;;;;;0.50;0.50;;;;;;;-3.79;100.00;101483.72;4982544;28;20044;-73
2024/01/06 07:06:19;;;;;;;0.50;0.50;;;;;;;-3.95;100.00;101482.69;4982784;28;20124;-73
2024/01/06 07:08:45;;;;;;;0.50;0.50;;;;;;;-4.07;100.00;101478.81;4978521;28;20041;-73
2024/01/06 07:11:18;;;;;;;0.50;0.50;;;;;;;-4.17;100.00;101488.84;4998355;28;20033;-73
2024/01/06 07:13:47;;;;;;;0.50;0.50;;;;;;;-4.07;100.00;101494.56;4998644;28;20045;-74
2024/01/06 07:16:15;;;;;;;0.50;0.50;;;;;;;-4.06;100.00;101496.28;4998812;28;20084;-74
2024/01/06 07:18:41;;;;;;;0.50;0.50;;;;;;;-4.04;100.00;101495.28;4981942;28;20073;-74
2024/01/06 07:21:09;;;;;;;0.50;0.50;;;;;;;-4.08;100.00;101495.47;5014012;28;20037;-73
2024/01/06 07:23:35;;;;;;;0.50;0.50;;;;;;;-4.13;100.00;101500.91;4982252;28;20380;-73
2024/01/06 07:26:01;;;;;;;0.60;0.60;;;;;;;-4.12;100.00;101505.25;4997867;28;20487;-73
2024/01/06 07:28:29;;;;;;;0.50;0.50;;;;;;;-4.01;100.00;101515.31;4982087;28;20046;-73
2024/01/06 07:30:55;;;;;;;0.50;0.50;;;;;;;-3.91;100.00;101515.81;4981820;28;20044;-73
2024/01/06 07:33:24;;;;;;;0.50;0.50;;;;;;;-3.87;100.00;101517.38;4981766;28;20396;-73
2024/01/06 07:35:50;;;;;;;0.50;0.50;;;;;;;-3.77;100.00;101518.69;4981789;28;20057;-73
2024/01/06 07:38:16;;;;;;;0.50;0.50;;;;;;;-3.81;100.00;101527.59;4997744;28;20119;-73
2024/01/06 07:40:44;;;;;;;0.50;0.50;;;;;;;-3.81;100.00;101527.59;4980683;28;20042;-74
2024/01/06 07:43:14;;;;;;;0.50;0.50;;;;;;;-3.87;100.00;101526.09;4981935;28;20127;-73
2024/01/06 07:45:41;;;;;;;0.50;0.50;;;;;;;-3.93;100.00;101534.25;4998091;28;20185;-73
2024/01/06 07:48:13;;;;;;;0.50;0.50;;;;;;;-4.02;100.00;101540.75;4998618;28;20030;-73
2024/01/06 07:50:38;;;;;;;0.50;0.50;;;;;;;-4.08;100.00;101548.00;4981378;28;20038;-75
2024/01/06 07:53:04;;;;;;;0.50;0.50;;;;;;;-4.18;100.00;101539.66;4981452;28;20487;-73
2024/01/06 07:55:30;;;;;;;0.50;0.50;;;;;;;-4.25;100.00;101551.31;4981475;28;20038;-73
2024/01/06 07:57:57;;;;;;;0.50;0.50;;;;;;;-4.17;100.00;101554.50;4996840;28;20428;-73
2024/01/06 08:00:22;;;;;;;0.50;0.50;;;;;;;-4.03;100.00;101554.78;4997631;28;20107;-73
2024/01/06 08:02:48;;;;;;;0.50;0.50;;;;;;;-3.94;100.00;101561.44;4997399;28;20038;-73
2024/01/06 08:05:14;;;;;;;0.45;0.45;;;;;;;-3.88;100.00;101568.22;4997245;28;20042;-73
2024/01/06 08:07:40;;;;;;;0.50;0.50;;;;;;;-3.79;100.00;101573.06;4980887;28;20038;-73
2024/01/06 08:10:06;;;;;;;0.50;0.50;;;;;;;-3.93;100.00;101567.56;4981183;28;20034;-73
2024/01/06 08:12:32;;;;;;;0.50;0.50;;;;;;;-4.02;100.00;101572.25;5013232;28;20053;-72
2024/01/06 08:15:05;;;;;;;0.50;0.50;;;;;;;-4.02;100.00;101574.03;5013070;28;20034;-72
2024/01/06 08:17:30;;;;;;;0.50;0.50;;;;;;;-4.06;100.00;101572.44;4980875;28;20038;-73
2024/01/06 08:19:56;;;;;;;0.50;0.50;;;;;;;-4.06;100.00;101583.81;4980967;28;20527;-72
2024/01/06 08:22:22;;;;;;;0.50;0.50;;;;;;;-4.08;100.00;101590.88;4980906;28;20040;-72
2024/01/06 08:24:47;;;;;;;0.50;0.50;;;;;;;-4.19;100.00;101590.47;4980730;28;20496;-72
2024/01/06 08:27:13;;;;;;;0.50;0.50;;;;;;;-4.19;100.00;101598.34;4980740;28;20048;-73
2024/01/06 08:29:39;;;;;;;0.50;0.50;;;;;;;-4.23;100.00;101600.25;4980772;28;20053;-73
2024/01/06 08:32:06;;;;;;;0.60;0.60;;;;;;;-4.28;100.00;101602.19;4980620;28;20029;-73
2024/01/06 08:34:32;;;;;;;0.50;0.50;;;;;;;-4.35;100.00;101605.97;4980601;28;20034;-73
2024/01/06 08:36:57;;;;;;;0.50;0.50;;;;;;;-4.39;100.00;101608.75;4996526;28;20038;-73
2024/01/06 08:39:24;;;;;;;0.50;0.50;;;;;;;-4.31;100.00;101606.69;4980460;28;20095;-72
2024/01/06 08:41:51;;;;;;;0.50;0.50;;;;;;;-4.10;100.00;101616.38;4980709;28;20030;-73
2024/01/06 08:44:25;;;;;;;0.50;0.50;;;;;;;-4.07;100.00;101612.78;4980675;28;20461;-72
2024/01/06 08:46:51;;;;;;;0.50;0.50;;;;;;;-4.16;100.00;101619.22;4981180;28;20033;-72
2024/01/06 08:49:20;;;;;;;0.50;0.50;;;;;;;-4.25;100.00;101620.44;4996287;28;20033;-72
2024/01/06 08:51:51;;;;;;;0.50;0.50;;;;;;;-4.18;100.00;101620.19;4980213;28;20069;-73
2024/01/06 08:54:20;;;;;;;0.50;0.50;;;;;;;-4.00;100.00;101629.97;4980132;28;20033;-73
2024/01/06 08:56:47;;;;;;;0.50;0.50;;;;;;;-4.04;100.00;101629.25;4996751;28;20033;-72
2024/01/06 08:59:16;;;;;;;0.50;0.50;;;;;;;-4.03;100.00;101630.09;4981092;28;20104;-72
2024/01/06 09:01:42;;;;;;;0.50;0.50;;;;;;;-3.99;100.00;101629.94;4980083;28;20590;-72
2024/01/06 09:04:11;;;;;;;0.50;0.50;;;;;;;-4.02;100.00;101635.31;4996451;28;20078;-73
2024/01/06 09:06:38;;;;;;;0.50;0.50;;;;;;;-4.06;100.00;101636.34;4980518;28;20037;-72
2024/01/06 09:09:11;;;;;;;0.50;0.50;;;;;;;-4.01;100.00;101647.50;4996423;28;20116;-71
2024/01/06 09:11:37;;;;;;;0.50;0.50;;;;;;;-3.98;100.00;101651.78;5012142;28;20030;-72
2024/01/06 09:14:03;;;;;;;0.50;0.50;;;;;;;-4.00;100.00;101656.25;4980198;28;20145;-72
2024/01/06 09:16:29;;;;;;;0.50;0.50;;;;;;;-3.89;100.00;101661.97;4979768;28;20030;-72
2024/01/06 09:18:55;;;;;;;0.50;0.50;;;;;;;-3.78;100.00;101672.88;4995852;28;20030;-72
2024/01/06 09:21:22;;;;;;;0.60;0.60;;;;;;;-3.73;100.00;101672.72;4995984;28;20032;-72
2024/01/06 09:23:47;;;;;;;0.50;0.50;;;;;;;-3.67;100.00;101679.50;4996373;28;20042;-72
2024/01/06 09:26:13;;;;;;;0.50;0.50;;;;;;;-3.60;100.00;101681.81;4980095;28;20164;-73
2024/01/06 09:28:39;;;;;;;0.50;0.50;;;;;;;-3.47;100.00;101681.28;4980045;28;20034;-72
2024/01/06 09:31:05;;;;;;;0.50;0.50;;;;;;;-3.40;100.00;101674.88;4995730;28;20048;-72
2024/01/06 09:33:33;;;;;;;0.50;0.50;;;;;;;-3.39;100.00;101689.72;4979248;28;20034;-73
2024/01/06 09:36:00;;;;;;;0.60;0.60;;;;;;;-3.32;100.00;101689.41;5010968;28;20034;-73
2024/01/06 09:38:26;;;;;;;0.50;0.50;;;;;;;-3.29;100.00;101680.53;4977770;28;20038;-73
2024/01/06 09:40:53;;;;;;;0.50;0.50;;;;;;;-3.29;100.00;101685.78;4977959;28;20072;-73
2024/01/06 09:43:18;;;;;;;0.50;0.50;;;;;;;-3.36;100.00;101686.94;4977839;28;20034;-73
2024/01/06 09:45:57;;;;;;;0.50;0.50;;;;;;;-3.24;100.00;101691.72;4978405;28;20033;-73
2024/01/06 09:48:30;;;;;;;0.50;0.50;;;;;;;-3.00;100.00;101694.22;4994113;28;20516;-73
2024/01/06 09:50:56;;;;;;;;;;;;;;;-2.82;100.00;101697.84;5011466;28;20026;-73
2024/01/06 09:53:25;;;;;;;0.50;0.50;;;;;;;-2.75;100.00;101705.41;4979912;28;20009;-73
2024/01/06 09:55:52;;;;;;;0.50;0.50;;;;;;;-2.68;100.00;101708.63;4979575;28;20034;-73
2024/01/06 09:58:18;;;;;;;0.50;0.50;;;;;;;-2.53;100.00;101707.09;4979736;28;20373;-73
2024/01/06 10:00:43;;;;;;;0.50;0.50;;;;;;;-2.29;100.00;101711.25;4980597;28;20040;-72
2024/01/06 10:03:10;;;;;;;0.50;0.50;;;;;;;-1.87;100.00;101715.47;4979521;28;20465;-72
2024/01/06 10:05:36;;;;;;;0.50;0.50;;;;;;;-1.82;100.00;101709.97;4995671;28;20026;-72
2024/01/06 10:08:18;;;;;;;0.50;0.50;;;;;;;-1.60;100.00;101693.97;4979420;28;20559;-73
2024/01/06 10:11:41;;;;;;;0.50;0.50;;;;;;;-1.26;100.00;101716.06;4998856;28;20072;-73
2024/01/06 10:14:07;;;;;;;0.50;0.50;;;;;;;-1.30;100.00;101727.69;5001737;28;20042;-73
2024/01/06 10:16:35;;;;;;;0.50;0.50;;;;;;;-1.16;100.00;101720.81;4979395;28;20045;-73
2024/01/06 10:19:01;;;;;;;0.50;0.50;;;;;;;-0.91;100.00;101735.41;4995612;28;20100;-73
2024/01/06 10:21:35;;;;;;;0.50;0.50;;;;;;;-0.27;100.00;101726.75;4981884;28;20046;-73
2024/01/06 10:24:19;;;;;;;0.50;0.50;;;;;;;0.47;100.00;101735.94;4998580;28;20052;-73
2024/01/06 10:26:48;;;;;;;0.60;0.60;;;;;;;0.91;100.00;101729.88;5015645;28;20034;-74
2024/01/06 10:29:14;;;;;;;0.60;0.60;;;;;;;1.33;100.00;101741.53;5015437;28;20041;-74
2024/01/06 10:31:41;;;;;;;0.50;0.50;;;;;;;1.64;100.00;101745.84;4999388;28;20132;-74
2024/01/06 10:34:06;;;;;;;0.50;0.50;;;;;;;1.96;100.00;101741.19;4998943;28;20084;-74
2024/01/06 10:36:32;;;;;;;0.50;0.50;;;;;;;2.13;100.00;101749.88;4982500;28;20037;-75
2024/01/06 10:39:01;;;;;;;0.50;0.50;;;;;;;2.00;100.00;101744.50;4982925;28;20558;-74
2024/01/06 10:41:32;;;;;;;0.50;0.50;;;;;;;1.58;100.00;101751.50;4999346;28;20038;-74
2024/01/06 10:44:01;;;;;;;0.50;0.50;;;;;;;1.52;100.00;101750.06;4967525;28;20042;-74
2024/01/06 10:46:29;;;;;;;0.50;0.50;;;;;;;1.71;100.00;101747.16;4967426;28;20038;-74
2024/01/06 10:48:58;;;;;;;0.50;0.50;;;;;;;1.94;100.00;101750.19;4983334;28;20030;-74
2024/01/06 10:51:25;;;;;;;0.50;0.50;;;;;;;2.10;100.00;101748.28;5014945;28;20124;-75
2024/01/06 10:53:56;;;;;;;0.50;0.50;;;;;;;1.87;100.00;101754.16;4999177;28;20080;-75
2024/01/06 10:56:22;;;;;;;0.50;0.50;;;;;;;1.94;100.00;101755.50;5014430;28;20431;-75
2024/01/06 10:58:51;;;;;;;0.50;0.50;;;;;;;2.09;100.00;101748.38;4966513;28;20053;-75
2024/01/06 11:01:24;;;;;;;0.50;0.50;;;;;;;1.84;100.00;101751.72;4983321;28;20439;-75
2024/01/06 11:03:50;;;;;;;0.50;0.50;;;;;;;1.83;100.00;101750.03;4982559;28;20038;-75
2024/01/06 11:06:18;;;;;;;0.50;0.50;;;;;;;1.78;100.00;101758.25;4982488;28;20025;-75
2024/01/06 11:08:51;;;;;;;0.50;0.50;;;;;;;1.86;100.00;101763.94;5014185;28;20034;-75
2024/01/06 11:11:18;;;;;;;0.50;0.50;;;;;;;1.94;100.00;101758.16;4982527;28;20033;-75
2024/01/06 11:13:45;;;;;;;0.50;0.50;;;;;;;1.99;100.00;101764.03;4982084;28;20037;-76
2024/01/06 11:16:11;;;;;;;0.50;0.50;;;;;;;1.91;100.00;101766.31;5015378;28;20079;-74
2024/01/06 11:18:38;;;;;;;0.50;0.50;;;;;;;1.92;100.00;101768.00;4982341;28;20033;-76
2024/01/06 11:21:29;;;;;;;0.60;0.60;;;;;;;1.95;100.00;101767.81;4997843;28;20037;-76
2024/01/06 11:24:28;;;;;;;0.50;0.50;;;;;;;2.05;100.00;101768.09;4999186;28;20112;-76
2024/01/06 11:26:56;;;;;;;0.50;0.50;;;;;;;2.25;100.00;101778.31;4993538;28;20556;-76